Time;durP1;ratioP1;P1;durP2;ratioP2;P2;SDS_P1;SDS_P2;PMS_P1;PMS_P2;Temp;Humidity;BMP_temperature;BMP_pressure;BME280_temperature;BME280_humidity;BME280_pressure;Samples;Min_cycle;Max_cycle;Signal;HPM_P1;HPM_P2
2021/05/25 00:01:38;;;;;;;1.27;1.17;;;13.20;81.50;;;;;;10410392;28;20232;-75
2021/05/25 00:06:39;;;;;;;2.23;1.20;;;13.10;81.00;;;;;;10408798;28;20202;-76
2021/05/25 00:11:42;;;;;;;1.13;1.03;;;13.00;80.50;;;;;;10409148;28;20300;-75
2021/05/25 00:16:44;;;;;;;1.20;1.10;;;12.90;80.40;;;;;;10408309;28;20202;-75
2021/05/25 00:21:46;;;;;;;1.10;1.00;;;12.90;80.50;;;;;;10410601;28;20224;-75
2021/05/25 00:26:49;;;;;;;1.37;1.27;;;12.80;80.00;;;;;;10409594;28;20703;-75
2021/05/25 00:31:51;;;;;;;1.30;1.20;;;12.80;81.00;;;;;;10410264;28;20256;-75
2021/05/25 00:36:52;;;;;;;2.33;1.17;;;12.70;81.80;;;;;;10409456;28;20634;-75
2021/05/25 00:41:55;;;;;;;4.07;1.00;;;12.70;81.10;;;;;;10409597;28;20609;-75
2021/05/25 00:46:56;;;;;;;1.93;1.40;;;12.70;81.50;;;;;;10408930;28;20222;-75
2021/05/25 00:51:58;;;;;;;1.33;1.23;;;12.70;82.50;;;;;;10409953;28;20249;-75
2021/05/25 00:57:01;;;;;;;1.27;1.17;;;12.70;83.50;;;;;;10409134;28;20232;-75
2021/05/25 01:02:02;;;;;;;1.50;1.23;;;12.60;83.50;;;;;;10404658;28;20256;-75
2021/05/25 01:07:04;;;;;;;1.80;1.40;;;12.50;85.50;;;;;;10408968;28;20197;-75
2021/05/25 01:12:09;;;;;;;3.13;1.23;;;12.50;83.90;;;;;;10414687;28;20248;-75
2021/05/25 01:17:12;;;;;;;2.47;1.23;;;12.50;84.80;;;;;;10416589;28;20244;-75
2021/05/25 01:22:14;;;;;;;1.20;1.20;;;12.40;85.00;;;;;;10416810;28;20217;-75
2021/05/25 01:27:16;;;;;;;1.63;1.53;;;12.40;83.50;;;;;;10415098;28;20190;-76
2021/05/25 01:32:17;;;;;;;2.70;1.10;;;12.30;82.60;;;;;;10416233;28;20251;-76
2021/05/25 01:37:22;;;;;;;1.67;1.27;;;12.20;83.50;;;;;;10414729;28;20704;-75
2021/05/25 01:42:31;;;;;;;1.70;1.27;;;12.20;83.70;;;;;;10414158;28;20312;-76
2021/05/25 01:47:33;;;;;;;1.63;1.27;;;12.20;83.40;;;;;;10413954;28;20202;-76
2021/05/25 01:52:36;;;;;;;1.93;1.33;;;12.10;83.70;;;;;;10415087;28;20570;-76
2021/05/25 01:57:40;;;;;;;1.63;1.53;;;12.10;82.50;;;;;;10397075;28;20308;-76
2021/05/25 02:02:42;;;;;;;4.93;1.73;;;12.10;83.50;;;;;;10413370;28;20290;-75
2021/05/25 02:07:49;;;;;;;1.60;1.50;;;12.00;82.70;;;;;;10414413;28;20291;-76
2021/05/25 02:12:52;;;;;;;1.53;1.40;;;11.90;82.30;;;;;;10413412;28;20225;-75
2021/05/25 02:17:55;;;;;;;1.73;1.40;;;11.90;81.10;;;;;;10413733;28;20253;-76
2021/05/25 02:22:57;;;;;;;1.77;1.30;;;11.90;82.00;;;;;;10412514;28;20233;-75
2021/05/25 02:28:00;;;;;;;1.57;1.47;;;12.00;81.40;;;;;;10395862;28;20700;-75
2021/05/25 02:33:05;;;;;;;1.90;1.30;;;12.00;81.30;;;;;;10413920;28;20221;-75
2021/05/25 02:38:09;;;;;;;1.73;1.50;;;12.00;80.80;;;;;;10413305;28;20309;-75
2021/05/25 02:43:11;;;;;;;1.30;1.20;;;11.90;81.10;;;;;;10413516;28;20226;-75
2021/05/25 02:48:14;;;;;;;1.73;1.30;;;11.90;81.00;;;;;;10413171;28;20190;-75
2021/05/25 02:53:17;;;;;;;1.90;1.27;;;11.90;79.90;;;;;;10412764;28;20286;-75
2021/05/25 02:58:18;;;;;;;1.37;1.20;;;11.90;79.60;;;;;;10412375;28;20300;-75
2021/05/25 03:03:20;;;;;;;2.63;1.80;;;11.90;79.90;;;;;;10412129;28;20694;-75
2021/05/25 03:08:22;;;;;;;1.93;1.50;;;11.90;79.00;;;;;;10411953;28;20204;-75
2021/05/25 03:13:24;;;;;;;1.90;1.50;;;11.90;79.00;;;;;;10412535;28;20264;-75
2021/05/25 03:18:26;;;;;;;1.30;1.20;;;11.90;78.80;;;;;;10411669;28;20245;-75
2021/05/25 03:23:28;;;;;;;1.40;1.30;;;11.90;79.50;;;;;;10411872;28;20245;-75
2021/05/25 03:28:30;;;;;;;2.30;1.80;;;11.90;79.70;;;;;;10411541;28;20226;-75
2021/05/25 03:33:31;;;;;;;1.30;1.20;;;11.90;79.10;;;;;;10410761;28;20662;-75
2021/05/25 03:38:34;;;;;;;2.53;1.60;;;11.90;77.50;;;;;;10411118;28;20210;-75
2021/05/25 03:43:36;;;;;;;2.30;1.80;;;11.80;79.20;;;;;;10409895;28;20234;-75
2021/05/25 03:48:37;;;;;;;1.67;1.40;;;11.80;78.30;;;;;;10411034;28;20198;-75
2021/05/25 03:53:40;;;;;;;1.67;1.57;;;11.80;78.00;;;;;;10411113;28;20631;-75
2021/05/25 03:58:49;;;;;;;3.03;1.63;;;11.90;78.00;;;;;;10409378;28;20368;-75
2021/05/25 04:03:51;;;;;;;3.00;2.33;;;11.80;78.00;;;;;;10435360;23;20724;-78
2021/05/25 04:08:54;;;;;;;1.70;1.40;;;11.70;77.50;;;;;;10411211;28;20198;-77
2021/05/25 04:13:55;;;;;;;2.73;1.20;;;11.70;78.80;;;;;;10408581;28;20233;-77
2021/05/25 04:18:57;;;;;;;2.07;1.63;;;11.70;77.90;;;;;;10407533;28;20241;-77
2021/05/25 04:23:59;;;;;;;0.90;0.90;;;11.70;77.70;;;;;;10410916;28;20701;-77
2021/05/25 04:29:01;;;;;;;1.77;1.40;;;11.80;76.80;;;;;;10411678;28;20217;-77
2021/05/25 04:34:04;;;;;;;1.27;1.17;;;11.80;77.70;;;;;;10408098;28;20213;-77
2021/05/25 04:39:06;;;;;;;1.93;1.10;;;11.90;77.10;;;;;;10411179;28;20296;-77
2021/05/25 04:44:08;;;;;;;2.53;1.40;;;11.90;77.60;;;;;;10398158;28;20295;-77
2021/05/25 04:49:09;;;;;;;1.53;1.13;;;11.80;77.50;;;;;;10416209;28;20189;-77
2021/05/25 04:54:12;;;;;;;1.80;1.27;;;11.80;77.50;;;;;;10417340;28;20585;-76
2021/05/25 04:59:14;;;;;;;1.57;1.43;;;11.80;78.60;;;;;;10422092;28;20317;-76
2021/05/25 05:04:15;;;;;;;1.13;1.07;;;11.90;78.10;;;;;;10418860;28;20680;-77
2021/05/25 05:09:18;;;;;;;1.63;1.30;;;12.10;77.30;;;;;;10401120;28;20198;-77
2021/05/25 05:14:19;;;;;;;1.43;1.10;;;12.20;78.10;;;;;;10416069;28;20225;-77
2021/05/25 05:19:21;;;;;;;1.03;1.03;;;12.40;75.90;;;;;;10414483;28;20217;-77
2021/05/25 05:24:23;;;;;;;2.03;1.50;;;12.50;76.60;;;;;;10416451;28;20210;-78
2021/05/25 05:29:25;;;;;;;1.30;1.20;;;12.60;74.60;;;;;;10415658;28;20194;-77
2021/05/25 05:34:27;;;;;;;1.17;1.10;;;12.80;75.30;;;;;;10415814;28;20214;-77
2021/05/25 05:39:29;;;;;;;1.67;1.30;;;12.80;73.10;;;;;;10414648;28;20275;-78
2021/05/25 05:44:31;;;;;;;2.10;1.10;;;12.80;75.60;;;;;;10418825;28;20296;-78
2021/05/25 05:49:32;;;;;;;1.20;1.10;;;12.90;74.10;;;;;;10416900;28;20200;-78
2021/05/25 05:54:35;;;;;;;1.53;1.20;;;12.90;74.30;;;;;;10422308;28;20226;-77
2021/05/25 05:59:37;;;;;;;1.50;1.40;;;13.10;73.70;;;;;;10426641;28;20226;-78
2021/05/25 06:04:39;;;;;;;1.17;1.07;;;13.20;73.10;;;;;;10416602;28;20238;-77
2021/05/25 06:09:42;;;;;;;2.23;1.10;;;13.50;71.90;;;;;;10415858;28;20248;-78
2021/05/25 06:14:43;;;;;;;1.67;1.57;;;13.60;71.10;;;;;;10415060;28;20257;-78
2021/05/25 06:19:45;;;;;;;3.03;1.20;;;13.50;70.30;;;;;;10415560;28;20249;-77
2021/05/25 06:24:47;;;;;;;1.40;1.30;;;13.60;71.30;;;;;;10417371;28;20237;-78
2021/05/25 06:29:49;;;;;;;3.50;1.27;;;13.70;70.90;;;;;;10415538;28;20213;-78
2021/05/25 06:34:51;;;;;;;2.03;1.67;;;13.90;67.70;;;;;;10417779;28;20467;-78
2021/05/25 06:39:54;;;;;;;1.57;1.47;;;13.90;67.70;;;;;;10415308;28;20275;-80
2021/05/25 06:44:55;;;;;;;1.80;1.70;;;14.00;66.40;;;;;;10420839;28;20270;-77
2021/05/25 06:49:57;;;;;;;1.50;1.40;;;14.20;66.60;;;;;;10424827;28;20285;-77
2021/05/25 06:55:01;;;;;;;1.37;1.30;;;14.30;66.00;;;;;;10422566;28;20220;-78
2021/05/25 07:00:04;;;;;;;1.80;1.70;;;14.40;65.60;;;;;;10397072;28;20232;-77
2021/05/25 07:05:08;;;;;;;5.50;1.40;;;14.70;63.60;;;;;;10396435;28;20709;-77
2021/05/25 07:10:11;;;;;;;2.00;1.47;;;14.80;63.60;;;;;;10413080;28;20205;-79
2021/05/25 07:15:14;;;;;;;3.10;1.60;;;14.70;64.20;;;;;;10407690;28;20214;-76
2021/05/25 07:20:16;;;;;;;1.60;1.50;;;14.60;63.10;;;;;;10413391;28;20595;-77
2021/05/25 07:25:19;;;;;;;1.97;1.47;;;14.60;63.30;;;;;;10412797;28;20248;-78
2021/05/25 07:30:22;;;;;;;3.47;1.70;;;14.60;63.40;;;;;;10414338;28;20214;-78
2021/05/25 07:35:24;;;;;;;1.70;1.47;;;14.60;62.60;;;;;;10413095;28;20201;-79
2021/05/25 07:40:26;;;;;;;3.80;1.57;;;14.80;63.30;;;;;;10413580;28;20363;-77
2021/05/25 07:45:28;;;;;;;2.40;1.60;;;15.00;62.60;;;;;;10411684;28;20264;-79
2021/05/25 07:50:30;;;;;;;2.30;1.50;;;15.10;61.10;;;;;;10412754;28;20261;-78
2021/05/25 07:55:32;;;;;;;2.60;1.60;;;15.10;59.70;;;;;;10412559;28;20201;-77
2021/05/25 08:00:34;;;;;;;1.60;1.50;;;15.30;59.00;;;;;;10395210;28;20241;-79
2021/05/25 08:05:36;;;;;;;5.20;1.60;;;15.60;57.80;;;;;;10413441;28;20202;-79
2021/05/25 08:10:39;;;;;;;2.30;1.50;;;15.70;58.30;;;;;;10413697;28;20612;-79
2021/05/25 08:15:41;;;;;;;2.30;2.10;;;15.60;57.80;;;;;;10412996;28;20289;-79
2021/05/25 08:20:44;;;;;;;1.70;1.53;;;15.70;58.30;;;;;;10394541;28;20225;-79
2021/05/25 08:25:47;;;;;;;1.57;1.47;;;15.80;57.90;;;;;;10413395;28;20577;-79
2021/05/25 08:30:48;;;;;;;2.40;1.47;;;16.20;57.60;;;;;;10395603;28;20214;-79
2021/05/25 08:35:50;;;;;;;3.70;1.50;;;16.60;56.50;;;;;;10412711;28;20204;-78
2021/05/25 08:40:55;;;;;;;2.43;1.63;;;16.50;56.10;;;;;;10413272;28;20230;-78
2021/05/25 08:45:56;;;;;;;2.13;1.10;;;16.50;55.30;;;;;;10412458;28;20221;-79
2021/05/25 08:51:00;;;;;;;1.77;1.50;;;16.80;56.10;;;;;;10417925;28;20218;-79
2021/05/25 08:56:03;;;;;;;1.87;1.70;;;17.20;56.30;;;;;;10430193;28;20201;-78
2021/05/25 09:01:04;;;;;;;1.40;1.30;;;17.80;54.20;;;;;;10416147;28;20232;-78
2021/05/25 09:06:07;;;;;;;1.30;1.20;;;18.30;54.20;;;;;;10411608;28;20206;-78
2021/05/25 09:11:11;;;;;;;1.87;1.60;;;18.90;53.30;;;;;;10411512;28;20706;-78
2021/05/25 09:16:13;;;;;;;1.60;1.50;;;19.60;52.00;;;;;;10410795;28;20206;-78
2021/05/25 09:21:29;;;;;;;1.43;1.30;;;19.60;51.30;;;;;;10409245;28;20725;-79
2021/05/25 09:26:35;;;;;;;2.97;1.37;;;18.80;52.10;;;;;;10407549;28;20226;-78
2021/05/25 09:31:38;;;;;;;1.30;1.20;;;18.20;52.90;;;;;;10412675;28;20259;-78
2021/05/25 09:36:57;;;;;;;1.50;1.40;;;17.60;53.50;;;;;;10396962;28;20205;-78
2021/05/25 09:42:01;;;;;;;3.10;1.80;;;17.00;55.40;;;;;;10413177;28;20565;-79
2021/05/25 09:47:04;;;;;;;2.13;1.93;;;16.90;57.10;;;;;;10416664;28;20212;-78
2021/05/25 09:52:07;;;;;;;2.10;1.40;;;16.60;56.20;;;;;;10416388;28;20360;-78
2021/05/25 09:57:09;;;;;;;2.83;1.60;;;16.30;58.60;;;;;;10416535;28;20756;-78
2021/05/25 10:02:24;;;;;;;1.73;1.60;;;16.30;57.80;;;;;;10452071;22;20229;-80
2021/05/25 10:07:29;;;;;;;4.00;1.67;;;16.70;57.30;;;;;;10417247;28;20195;-80
2021/05/25 10:12:32;;;;;;;1.57;1.47;;;18.60;54.20;;;;;;10439471;28;20212;-81
2021/05/25 10:17:44;;;;;;;4.07;1.60;;;20.60;52.30;;;;;;10442316;28;20292;-80
2021/05/25 10:22:46;;;;;;;1.60;1.50;;;21.30;49.30;;;;;;10460006;28;20224;-80
2021/05/25 10:27:49;;;;;;;1.67;1.57;;;20.50;49.40;;;;;;10467849;28;20225;-79
2021/05/25 10:32:52;;;;;;;2.03;1.93;;;20.00;49.10;;;;;;10463184;28;20259;-79
2021/05/25 10:38:06;;;;;;;1.53;1.43;;;19.10;49.60;;;;;;10459659;28;20213;-79
2021/05/25 10:43:44;;;;;;;2.00;1.90;;;18.30;49.40;;;;;;10449730;28;20225;-79
2021/05/25 10:48:58;;;;;;;2.03;1.70;;;17.70;50.60;;;;;;10448905;28;20186;-79
2021/05/25 10:54:23;;;;;;;1.77;1.67;;;17.40;51.10;;;;;;10457392;28;20217;-80
2021/05/25 10:59:25;;;;;;;2.27;2.10;;;17.00;51.70;;;;;;10457739;28;20756;-78
2021/05/25 11:04:36;;;;;;;2.93;2.07;;;16.80;52.90;;;;;;10439089;28;20363;-78
2021/05/25 11:09:38;;;;;;;1.90;1.70;;;16.70;54.10;;;;;;10457597;28;20201;-78
2021/05/25 11:15:14;;;;;;;3.20;2.17;;;16.70;54.50;;;;;;10452295;28;20582;-81
2021/05/25 11:20:52;;;;;;;1.87;1.50;;;16.60;56.40;;;;;;10454468;28;20600;-81
2021/05/25 11:25:53;;;;;;;2.23;2.10;;;16.30;58.70;;;;;;10454879;28;20221;-80
2021/05/25 11:30:57;;;;;;;2.60;2.40;;;15.90;75.10;;;;;;10452941;28;20267;-80
2021/05/25 11:36:00;;;;;;;2.37;2.20;;;15.20;80.20;;;;;;10441192;28;20213;-80
2021/05/25 11:41:02;;;;;;;2.00;1.90;;;14.80;84.60;;;;;;10445629;28;20294;-79
2021/05/25 11:46:04;;;;;;;1.97;1.87;;;14.50;86.30;;;;;;10455091;28;20221;-80
2021/05/25 11:51:09;;;;;;;2.70;2.03;;;14.10;83.40;;;;;;10443224;28;20214;-83
2021/05/25 11:56:11;;;;;;;1.80;1.70;;;14.00;80.10;;;;;;10468399;28;20198;-81
2021/05/25 12:01:14;;;;;;;2.20;1.87;;;13.90;75.50;;;;;;10460680;28;20336;-83
2021/05/25 12:06:15;;;;;;;2.10;2.00;;;13.80;75.30;;;;;;10461254;28;20201;-81
2021/05/25 12:11:36;;;;;;;2.97;1.77;;;13.70;75.30;;;;;;10436764;28;20213;-83
2021/05/25 12:16:39;;;;;;;1.63;1.50;;;13.90;70.00;;;;;;10461793;28;20724;-83
2021/05/25 12:21:40;;;;;;;1.90;1.70;;;14.10;69.00;;;;;;10479534;28;20604;-82
2021/05/25 12:26:51;;;;;;;2.33;1.50;;;14.30;68.90;;;;;;10454294;28;20212;-81
2021/05/25 12:31:54;;;;;;;2.00;1.27;;;14.60;67.10;;;;;;10467280;28;20243;-82
2021/05/25 12:36:57;;;;;;;2.30;1.50;;;14.70;64.80;;;;;;10477739;28;20243;-83
2021/05/25 12:41:59;;;;;;;1.80;1.70;;;15.10;66.10;;;;;;10461014;28;20298;-83
2021/05/25 12:47:05;;;;;;;1.67;1.57;;;15.40;61.50;;;;;;10456673;28;20205;-80
2021/05/25 12:52:24;;;;;;;1.57;1.47;;;15.70;60.50;;;;;;10506181;28;20355;-83
2021/05/25 12:57:42;;;;;;;2.00;1.90;;;15.80;58.10;;;;;;10463300;28;20205;-83
2021/05/25 13:02:48;;;;;;;2.27;2.07;;;15.80;58.10;;;;;;10442735;28;20229;-82
2021/05/25 13:07:53;;;;;;;2.00;1.47;;;15.90;59.40;;;;;;10447666;28;20582;-83
2021/05/25 13:12:56;;;;;;;1.70;1.60;;;16.10;57.60;;;;;;10465909;28;20410;-82
2021/05/25 13:17:59;;;;;;;1.63;1.53;;;16.30;57.80;;;;;;10450334;28;20661;-83
2021/05/25 13:23:01;;;;;;;3.03;1.40;;;16.50;56.80;;;;;;10466849;28;20225;-83
2021/05/25 13:28:03;;;;;;;2.10;1.57;;;16.70;56.90;;;;;;10449896;28;20213;-82
2021/05/25 13:33:05;;;;;;;2.00;1.90;;;16.90;55.70;;;;;;10468453;28;20313;-81
2021/05/25 13:38:07;;;;;;;2.57;2.03;;;17.00;54.60;;;;;;10440482;28;20213;-81
2021/05/25 13:43:09;;;;;;;7.23;1.90;;;17.10;54.60;;;;;;10438173;28;20218;-80
2021/05/25 13:48:11;;;;;;;1.70;1.60;;;17.10;54.40;;;;;;10436359;28;20190;-80
2021/05/25 13:53:13;;;;;;;3.07;1.90;;;17.10;56.30;;;;;;10425514;28;20214;-80
2021/05/25 13:58:17;;;;;;;2.53;1.43;;;17.00;52.80;;;;;;10424570;28;20221;-80
2021/05/25 14:03:20;;;;;;;2.03;1.83;;;16.90;54.60;;;;;;10425360;28;20229;-81
2021/05/25 14:08:21;;;;;;;1.70;1.53;;;17.00;53.60;;;;;;10425820;28;20277;-81
2021/05/25 14:13:23;;;;;;;1.80;1.70;;;17.10;53.40;;;;;;10458504;28;20226;-82
2021/05/25 14:18:26;;;;;;;1.70;1.60;;;17.20;53.70;;;;;;10426772;28;20210;-80
2021/05/25 14:23:27;;;;;;;1.73;1.63;;;17.10;53.50;;;;;;10439954;28;20280;-80
2021/05/25 14:28:30;;;;;;;1.83;1.37;;;17.00;54.70;;;;;;10435706;28;20204;-80
2021/05/25 14:33:32;;;;;;;3.43;2.07;;;16.90;53.60;;;;;;10452501;28;20228;-80
2021/05/25 14:38:34;;;;;;;2.23;2.00;;;16.80;55.40;;;;;;10458799;28;20213;-80
2021/05/25 14:43:36;;;;;;;1.60;1.50;;;16.70;52.30;;;;;;10458653;28;20308;-81
2021/05/25 14:48:39;;;;;;;1.57;1.40;;;16.60;52.80;;;;;;10455917;28;20249;-81
2021/05/25 14:53:43;;;;;;;2.17;1.30;;;16.70;51.60;;;;;;10457331;28;20228;-80
2021/05/25 14:58:48;;;;;;;2.10;1.87;;;16.80;52.40;;;;;;10457475;28;20213;-81
2021/05/25 15:03:52;;;;;;;1.70;1.50;;;16.80;52.40;;;;;;10462342;28;20244;-80
2021/05/25 15:08:55;;;;;;;2.23;1.70;;;16.90;52.70;;;;;;10470234;28;20197;-80
2021/05/25 15:13:57;;;;;;;2.40;1.60;;;16.90;51.50;;;;;;10445280;28;20245;-81
2021/05/25 15:18:59;;;;;;;1.70;1.60;;;16.90;51.60;;;;;;10452179;28;20218;-80
2021/05/25 15:24:01;;;;;;;1.40;1.30;;;16.90;50.80;;;;;;10458277;28;20225;-80
2021/05/25 15:29:03;;;;;;;1.57;1.47;;;17.00;50.90;;;;;;10455789;28;20212;-81
2021/05/25 15:34:06;;;;;;;1.70;1.60;;;17.10;50.40;;;;;;10451070;28;20661;-80
2021/05/25 15:39:07;;;;;;;2.60;1.47;;;17.10;51.40;;;;;;10443704;28;20240;-80
2021/05/25 15:44:09;;;;;;;2.50;1.40;;;17.00;49.90;;;;;;10433149;28;20295;-80
2021/05/25 15:49:12;;;;;;;1.40;1.30;;;17.00;50.70;;;;;;10423653;28;20198;-80
2021/05/25 15:54:14;;;;;;;3.40;1.60;;;17.00;50.50;;;;;;10425503;28;20326;-80
2021/05/25 15:59:16;;;;;;;2.43;1.83;;;17.00;50.70;;;;;;10450228;28;20221;-80
2021/05/25 16:04:19;;;;;;;3.03;1.53;;;17.10;50.20;;;;;;10455373;28;20237;-80
2021/05/25 16:09:21;;;;;;;2.00;1.70;;;17.20;51.30;;;;;;10456207;28;20339;-80
2021/05/25 16:14:22;;;;;;;2.80;1.60;;;17.30;51.40;;;;;;10449717;28;20221;-80
2021/05/25 16:19:25;;;;;;;1.50;1.37;;;17.20;50.40;;;;;;10452327;28;20255;-79
2021/05/25 16:24:26;;;;;;;2.87;2.00;;;17.10;53.00;;;;;;10435003;28;20249;-80
2021/05/25 16:29:28;;;;;;;1.90;1.80;;;17.20;51.60;;;;;;10445293;28;20219;-79
2021/05/25 16:34:31;;;;;;;2.73;1.80;;;17.10;50.30;;;;;;10446472;28;20218;-80
2021/05/25 16:39:33;;;;;;;1.70;1.60;;;16.90;50.40;;;;;;10427300;28;20217;-80
2021/05/25 16:44:35;;;;;;;1.80;1.70;;;16.80;48.90;;;;;;10439687;28;20221;-80
2021/05/25 16:49:37;;;;;;;2.10;1.53;;;16.80;49.50;;;;;;10443973;28;20312;-80
2021/05/25 16:54:39;;;;;;;2.60;1.80;;;16.80;50.70;;;;;;10431742;28;20853;-80
2021/05/25 16:59:40;;;;;;;1.93;1.70;;;16.70;50.30;;;;;;10443831;28;20214;-79
2021/05/25 17:05:15;;;;;;;2.30;2.10;;;16.80;51.40;;;;;;10454299;28;20264;-80
2021/05/25 17:10:27;;;;;;;3.43;1.90;;;16.90;50.70;;;;;;10463555;28;20197;-80
2021/05/25 17:20:49;;;;;;;2.37;1.80;;;16.70;49.80;;;;;;10430413;28;20225;-79
2021/05/25 17:31:10;;;;;;;1.77;1.53;;;16.60;49.90;;;;;;10449065;28;20236;-80
2021/05/25 17:36:13;;;;;;;3.20;1.67;;;16.60;50.10;;;;;;10444628;28;20237;-79
2021/05/25 17:41:14;;;;;;;2.00;1.80;;;16.60;50.60;;;;;;10455307;28;20237;-79
2021/05/25 17:46:16;;;;;;;1.70;1.50;;;16.60;49.70;;;;;;10443063;28;20297;-80
2021/05/25 17:51:18;;;;;;;2.20;1.67;;;16.60;50.10;;;;;;10455620;28;20218;-79
2021/05/25 17:56:20;;;;;;;1.37;1.27;;;16.60;51.60;;;;;;10452900;28;20208;-79
2021/05/25 18:01:22;;;;;;;2.20;2.00;;;16.50;52.10;;;;;;10449645;28;20583;-80
2021/05/25 18:06:24;;;;;;;3.20;1.93;;;16.50;51.10;;;;;;10452332;28;20229;-80
2021/05/25 18:11:28;;;;;;;2.00;1.83;;;16.40;51.00;;;;;;10437713;28;20233;-80
2021/05/25 18:16:29;;;;;;;2.67;1.90;;;16.30;50.60;;;;;;10436145;28;20296;-79
2021/05/25 18:21:33;;;;;;;3.13;1.70;;;16.10;51.90;;;;;;10447438;28;20222;-80
2021/05/25 18:26:34;;;;;;;2.50;1.43;;;16.10;51.30;;;;;;10453850;28;20205;-79
2021/05/25 18:31:38;;;;;;;2.00;1.73;;;16.00;50.40;;;;;;10439788;28;20224;-79
2021/05/25 18:36:59;;;;;;;5.57;2.10;;;15.90;50.90;;;;;;10447307;28;20221;-79
2021/05/25 18:42:03;;;;;;;3.50;1.93;;;15.80;51.20;;;;;;10440009;28;20233;-79
2021/05/25 18:47:06;;;;;;;3.77;1.60;;;15.80;51.30;;;;;;10431199;28;20298;-79
2021/05/25 18:52:13;;;;;;;1.43;1.20;;;15.70;51.50;;;;;;10430862;28;20227;-80
2021/05/25 18:57:16;;;;;;;2.17;1.97;;;15.70;51.90;;;;;;10427275;28;20292;-79
2021/05/25 19:02:18;;;;;;;2.13;1.73;;;15.70;53.20;;;;;;10432044;28;20253;-80
2021/05/25 19:07:20;;;;;;;2.07;1.97;;;15.60;53.60;;;;;;10482626;28;20276;-79
2021/05/25 19:12:22;;;;;;;2.80;2.10;;;15.60;54.10;;;;;;10428653;28;20352;-80
2021/05/25 19:17:23;;;;;;;2.50;1.90;;;15.60;53.70;;;;;;10454215;28;20201;-80
2021/05/25 19:22:32;;;;;;;2.17;2.00;;;15.60;53.80;;;;;;10448153;28;20233;-80
2021/05/25 19:27:34;;;;;;;5.37;2.37;;;15.60;54.00;;;;;;10429212;28;20197;-79
2021/05/25 19:32:36;;;;;;;3.00;1.70;;;15.50;53.60;;;;;;10429302;28;20248;-78
2021/05/25 19:37:39;;;;;;;2.63;2.00;;;15.50;53.10;;;;;;10443343;28;20656;-78
2021/05/25 19:42:40;;;;;;;1.80;1.70;;;15.40;54.30;;;;;;10438491;28;20226;-78
2021/05/25 19:47:43;;;;;;;2.80;1.80;;;15.30;54.90;;;;;;10437155;28;20194;-79
2021/05/25 19:52:47;;;;;;;2.07;1.80;;;15.20;54.70;;;;;;10417169;28;20739;-79
2021/05/25 19:57:49;;;;;;;2.27;2.00;;;15.20;54.90;;;;;;10422706;28;20289;-78
2021/05/25 20:02:50;;;;;;;2.20;2.00;;;15.10;54.50;;;;;;10444686;28;20274;-79
2021/05/25 20:07:54;;;;;;;1.87;1.67;;;15.10;55.60;;;;;;10418281;28;20228;-79
2021/05/25 20:12:56;;;;;;;2.83;1.40;;;15.00;55.80;;;;;;10433408;28;20228;-78
2021/05/25 20:17:58;;;;;;;1.70;1.60;;;15.00;54.90;;;;;;10451194;28;20246;-78
2021/05/25 20:23:01;;;;;;;1.70;1.60;;;15.00;56.20;;;;;;10437561;28;20256;-78
2021/05/25 20:28:03;;;;;;;1.97;1.70;;;14.90;55.90;;;;;;10436503;28;20205;-78
2021/05/25 20:33:06;;;;;;;2.47;1.70;;;14.90;56.40;;;;;;10443139;28;20241;-78
2021/05/25 20:38:11;;;;;;;3.20;1.90;;;14.80;56.40;;;;;;10426437;28;20205;-78
2021/05/25 20:43:13;;;;;;;2.40;2.07;;;14.80;56.00;;;;;;10447180;28;20253;-79
2021/05/25 20:48:15;;;;;;;1.93;1.60;;;14.80;56.50;;;;;;10452776;28;20283;-79
2021/05/25 20:53:19;;;;;;;1.93;1.70;;;14.70;57.30;;;;;;10435982;28;20255;-79
2021/05/25 20:58:21;;;;;;;2.20;1.83;;;14.70;56.70;;;;;;10441094;28;20576;-78
2021/05/25 21:03:23;;;;;;;3.40;2.50;;;14.70;56.70;;;;;;10452955;28;20407;-79
2021/05/25 21:08:25;;;;;;;2.10;1.87;;;14.60;57.10;;;;;;10449147;28;20231;-79
2021/05/25 21:13:27;;;;;;;2.10;1.90;;;14.50;57.90;;;;;;10440371;28;20221;-79
2021/05/25 21:18:28;;;;;;;1.90;1.80;;;14.50;57.50;;;;;;10433416;28;20280;-79
2021/05/25 21:23:31;;;;;;;1.80;1.70;;;14.40;58.70;;;;;;10438799;28;20578;-78
2021/05/25 21:28:35;;;;;;;1.90;1.80;;;14.30;58.40;;;;;;10423255;28;20244;-79
2021/05/25 21:33:36;;;;;;;2.50;1.83;;;14.30;58.80;;;;;;10448639;28;20228;-79
2021/05/25 21:38:39;;;;;;;1.83;1.70;;;14.20;58.70;;;;;;10444433;28;20666;-79
2021/05/25 21:43:40;;;;;;;1.73;1.63;;;14.10;59.40;;;;;;10452922;28;20716;-79
2021/05/25 21:48:42;;;;;;;3.10;1.97;;;14.10;58.90;;;;;;10458655;28;20339;-80
2021/05/25 21:53:45;;;;;;;5.80;2.10;;;14.00;59.40;;;;;;10460748;28;20221;-80
2021/05/25 21:58:46;;;;;;;1.77;1.67;;;13.90;59.40;;;;;;10453212;28;20213;-80
2021/05/25 22:03:48;;;;;;;2.13;1.90;;;13.80;60.10;;;;;;10449177;28;20229;-81
2021/05/25 22:08:50;;;;;;;1.63;1.53;;;13.80;60.50;;;;;;10436946;28;20232;-80
2021/05/25 22:13:52;;;;;;;4.43;1.60;;;13.70;59.90;;;;;;10434533;28;20317;-80
2021/05/25 22:18:54;;;;;;;1.90;1.70;;;13.70;60.60;;;;;;10433508;28;20286;-81
2021/05/25 22:23:56;;;;;;;2.17;1.97;;;13.60;61.60;;;;;;10463814;28;20220;-80
2021/05/25 22:28:58;;;;;;;1.73;1.60;;;13.60;60.90;;;;;;10450442;28;20225;-81
2021/05/25 22:33:59;;;;;;;1.60;1.50;;;13.60;59.90;;;;;;10461777;28;20319;-81
2021/05/25 22:39:02;;;;;;;1.63;1.53;;;13.70;60.10;;;;;;10441167;28;20705;-81
2021/05/25 22:44:04;;;;;;;1.73;1.60;;;13.70;59.60;;;;;;10447924;28;20727;-81
2021/05/25 22:49:06;;;;;;;1.83;1.50;;;13.70;60.30;;;;;;10461273;28;20632;-80
2021/05/25 22:54:09;;;;;;;1.90;1.60;;;13.80;60.50;;;;;;10438292;28;20863;-81
2021/05/25 22:59:10;;;;;;;1.80;1.70;;;13.90;60.50;;;;;;10433992;28;20217;-81
2021/05/25 23:04:12;;;;;;;2.30;2.10;;;14.00;61.00;;;;;;10437053;28;20276;-81
2021/05/25 23:09:14;;;;;;;1.70;1.60;;;14.00;61.00;;;;;;10430902;28;20276;-81
2021/05/25 23:14:16;;;;;;;1.80;1.70;;;14.10;60.40;;;;;;10434413;28;20240;-81
2021/05/25 23:19:18;;;;;;;2.33;2.13;;;14.20;61.40;;;;;;10443810;28;20233;-81
2021/05/25 23:24:20;;;;;;;3.50;2.20;;;14.20;62.50;;;;;;10434170;28;20218;-81
2021/05/25 23:29:22;;;;;;;1.90;1.80;;;14.20;62.20;;;;;;10449209;28;20206;-81
2021/05/25 23:34:23;;;;;;;2.70;1.50;;;14.20;61.80;;;;;;10436394;28;20249;-79
2021/05/25 23:39:26;;;;;;;1.97;1.60;;;14.30;62.60;;;;;;10460956;28;20735;-81
2021/05/25 23:44:27;;;;;;;2.50;1.87;;;14.30;61.30;;;;;;10441117;28;20221;-81
2021/05/25 23:49:29;;;;;;;1.43;1.40;;;14.30;62.60;;;;;;10449685;28;20224;-81
2021/05/25 23:54:32;;;;;;;2.30;1.70;;;14.30;63.40;;;;;;10434448;28;20307;-79
2021/05/25 23:59:33;;;;;;;2.30;1.87;;;14.20;63.10;;;;;;10439385;28;20284;-81
